Current Weather

Webster Nolf

St Inigoes, Maryland (KNUI)

Report from: Friday, April 19, 2024 4:53 AM EDT
Current time: Friday, April 19, 2024 5:49 AM EDT

Nearby weather – Weather history – Daily summaries
Weather forecast

Temperature10.6°C (51.1°F)
Dew point8.3°C (46.9°F)
Winds 3 kts (1.5 m/s, 3.5 mph) East-Northeast (60°)
Visibility10 mi. (16.1 km)
Clouds Ceiling: Overcast 1,200 ft. (366 m)
Altimeter30.11 in.Hg (1020 mB)
Relative humidity86 %
Density altitude-577 ft. (-176 m)
Sea-level pressure101.9 kPa (1019 mB, 30.10 in.Hg)
Remarks Fully automated report
Automated weather observing station with precipitation discriminator
Pressure falling more slowly
Flight conditions Marginal Visual Meteorological Conditions
Raw dataKNUI 190853Z AUTO 06003KT 10SM OVC012 11/08 A3011 RMK AO2 SLP194 T01060083 56003
An error has occurred. This application may no longer respond until reloaded. Reload 🗙